Terminal Aerodrome Forecast
Issued by NWS

Home | Current Version | Previous Version | Text Only | Print | Product List | Glossary On
Versions: 1 2 3 4 5 6 7 8 9 10 11 12 13 14 15 16 17 18 19 20 21 22 23 24 25 26
000
FTUS46 KMTR 191100
TAFSFO
TAF
KSFO 191120Z 1912/2018 27005KT P6SM OVC008
     FM191800 03004KT P6SM FEW010
     FM192200 29015KT P6SM FEW010
     FM200500 29009KT P6SM SCT010
     FM200700 29007KT P6SM BKN010=

USA.gov is the U.S. government's official web portal to all federal, state and local government web resources and services.